NY32 weather

Cayuga Medical Center Heliport
Ithaca, New York, United States

Public forecast

Using degrees Fahrenheit for public forecast. Weather courtesy of forecast.io.

METAR (pilot weather report)

Closest report is Ithaca Tompkins Regional Airport, 3.7 nm (6.8 km) ENE. Retrieved 2019/07/18 03:05 UTC (43 minutes ago):

KITH 180305Z AUTO 08003KT 10SM FEW017 SCT023 OVC035 22/22 A2994 RMK AO2

TAF (pilot weather forecast)

Forecast is more than 12 hours old.

Closest forecast is Ithaca Tompkins Regional Airport, 3.7 nm (6.8 km) ENE. Retrieved 2019/07/17 00:46 UTC (1 day ago):

TAF KITH 172344Z 1800/1824 VRB03KT 5SM -SHRA BR OVC025 TEMPO 1800/1801 2SM SHRA BR OVC015 FM180200 VRB03KT P6SM BKN025 OVC040 FM180400 VRB03KT 5SM BR OVC015 FM180900 VRB03KT 1SM BR OVC007 FM181300 VRB03KT 3SM BR OVC012 FM181700 VRB03KT P6SM BKN025 FM181900 VRB04KT P6SM BKN035